sensor_id;sensor_type;location;lat;lon;timestamp;P1;durP1;ratioP1;P2;durP2;ratioP2
3261;SDS011;1643;47.746;9.000;2023-09-18T00:01:39;4.53;;;2.90;;
3261;SDS011;1643;47.746;9.000;2023-09-18T00:04:05;4.87;;;3.03;;
3261;SDS011;1643;47.746;9.000;2023-09-18T00:06:32;3.17;;;2.80;;
3261;SDS011;1643;47.746;9.000;2023-09-18T00:08:58;4.20;;;2.83;;
3261;SDS011;1643;47.746;9.000;2023-09-18T00:11:23;5.23;;;3.60;;
3261;SDS011;1643;47.746;9.000;2023-09-18T00:13:49;6.27;;;3.20;;
3261;SDS011;1643;47.746;9.000;2023-09-18T00:16:15;3.47;;;3.00;;
3261;SDS011;1643;47.746;9.000;2023-09-18T00:18:41;3.17;;;2.87;;
3261;SDS011;1643;47.746;9.000;2023-09-18T00:21:07;5.03;;;2.83;;
3261;SDS011;1643;47.746;9.000;2023-09-18T00:23:35;3.87;;;3.47;;
3261;SDS011;1643;47.746;9.000;2023-09-18T00:26:03;4.40;;;2.97;;
3261;SDS011;1643;47.746;9.000;2023-09-18T00:28:29;3.47;;;2.53;;
3261;SDS011;1643;47.746;9.000;2023-09-18T00:30:55;4.27;;;2.87;;
3261;SDS011;1643;47.746;9.000;2023-09-18T00:33:20;5.10;;;2.93;;
3261;SDS011;1643;47.746;9.000;2023-09-18T00:35:47;3.70;;;2.87;;
3261;SDS011;1643;47.746;9.000;2023-09-18T00:38:13;4.70;;;2.67;;
3261;SDS011;1643;47.746;9.000;2023-09-18T00:40:40;3.00;;;2.73;;
3261;SDS011;1643;47.746;9.000;2023-09-18T00:43:06;4.20;;;2.60;;
3261;SDS011;1643;47.746;9.000;2023-09-18T00:45:32;2.83;;;2.63;;
3261;SDS011;1643;47.746;9.000;2023-09-18T00:47:58;3.57;;;2.40;;
3261;SDS011;1643;47.746;9.000;2023-09-18T00:50:23;4.33;;;3.03;;
3261;SDS011;1643;47.746;9.000;2023-09-18T00:52:49;2.80;;;2.53;;
3261;SDS011;1643;47.746;9.000;2023-09-18T00:55:15;3.70;;;2.90;;
3261;SDS011;1643;47.746;9.000;2023-09-18T00:57:41;4.60;;;2.77;;
3261;SDS011;1643;47.746;9.000;2023-09-18T01:00:08;3.20;;;2.80;;
3261;SDS011;1643;47.746;9.000;2023-09-18T01:02:34;4.00;;;3.17;;
3261;SDS011;1643;47.746;9.000;2023-09-18T01:05:00;5.23;;;3.00;;
3261;SDS011;1643;47.746;9.000;2023-09-18T01:07:26;4.70;;;3.03;;
3261;SDS011;1643;47.746;9.000;2023-09-18T01:09:53;2.67;;;2.30;;
3261;SDS011;1643;47.746;9.000;2023-09-18T01:12:28;5.33;;;3.20;;
3261;SDS011;1643;47.746;9.000;2023-09-18T01:15:11;4.00;;;2.37;;
3261;SDS011;1643;47.746;9.000;2023-09-18T01:17:58;2.63;;;2.43;;
3261;SDS011;1643;47.746;9.000;2023-09-18T01:20:24;3.70;;;3.30;;
3261;SDS011;1643;47.746;9.000;2023-09-18T01:22:50;2.73;;;2.53;;
3261;SDS011;1643;47.746;9.000;2023-09-18T01:25:15;4.33;;;2.53;;
3261;SDS011;1643;47.746;9.000;2023-09-18T01:27:41;3.00;;;2.40;;
3261;SDS011;1643;47.746;9.000;2023-09-18T01:30:07;4.20;;;3.00;;
3261;SDS011;1643;47.746;9.000;2023-09-18T01:32:33;8.30;;;2.70;;
3261;SDS011;1643;47.746;9.000;2023-09-18T01:35:02;3.63;;;2.60;;
3261;SDS011;1643;47.746;9.000;2023-09-18T01:37:31;2.80;;;2.57;;
3261;SDS011;1643;47.746;9.000;2023-09-18T01:39:57;2.90;;;2.57;;
3261;SDS011;1643;47.746;9.000;2023-09-18T01:42:24;5.50;;;2.90;;
3261;SDS011;1643;47.746;9.000;2023-09-18T01:44:54;2.57;;;2.37;;
3261;SDS011;1643;47.746;9.000;2023-09-18T01:47:20;3.93;;;2.53;;
3261;SDS011;1643;47.746;9.000;2023-09-18T01:49:52;2.80;;;2.60;;
3261;SDS011;1643;47.746;9.000;2023-09-18T01:52:17;2.80;;;2.23;;
3261;SDS011;1643;47.746;9.000;2023-09-18T01:54:43;2.83;;;2.50;;
3261;SDS011;1643;47.746;9.000;2023-09-18T01:57:09;2.93;;;2.27;;
3261;SDS011;1643;47.746;9.000;2023-09-18T01:59:35;4.93;;;2.73;;
3261;SDS011;1643;47.746;9.000;2023-09-18T02:02:00;3.27;;;2.90;;
3261;SDS011;1643;47.746;9.000;2023-09-18T02:04:28;3.00;;;2.70;;
3261;SDS011;1643;47.746;9.000;2023-09-18T02:06:54;3.20;;;2.40;;
3261;SDS011;1643;47.746;9.000;2023-09-18T02:09:20;3.87;;;2.60;;
3261;SDS011;1643;47.746;9.000;2023-09-18T02:11:46;4.80;;;2.77;;
3261;SDS011;1643;47.746;9.000;2023-09-18T02:14:13;2.37;;;2.17;;
3261;SDS011;1643;47.746;9.000;2023-09-18T02:16:40;2.53;;;2.33;;
3261;SDS011;1643;47.746;9.000;2023-09-18T02:19:08;2.53;;;2.33;;
3261;SDS011;1643;47.746;9.000;2023-09-18T02:21:35;5.13;;;2.93;;
3261;SDS011;1643;47.746;9.000;2023-09-18T02:24:01;3.27;;;2.60;;
3261;SDS011;1643;47.746;9.000;2023-09-18T02:26:27;3.13;;;2.80;;
3261;SDS011;1643;47.746;9.000;2023-09-18T02:28:53;2.87;;;2.23;;
3261;SDS011;1643;47.746;9.000;2023-09-18T02:31:20;2.70;;;2.50;;
3261;SDS011;1643;47.746;9.000;2023-09-18T02:33:47;3.33;;;3.00;;
3261;SDS011;1643;47.746;9.000;2023-09-18T02:36:13;3.33;;;2.33;;
3261;SDS011;1643;47.746;9.000;2023-09-18T02:38:39;3.77;;;2.30;;
3261;SDS011;1643;47.746;9.000;2023-09-18T02:41:05;4.50;;;2.47;;
3261;SDS011;1643;47.746;9.000;2023-09-18T02:43:30;3.37;;;2.23;;
3261;SDS011;1643;47.746;9.000;2023-09-18T02:45:56;3.40;;;2.97;;
3261;SDS011;1643;47.746;9.000;2023-09-18T02:48:22;3.53;;;2.77;;
3261;SDS011;1643;47.746;9.000;2023-09-18T02:50:48;4.27;;;3.17;;
3261;SDS011;1643;47.746;9.000;2023-09-18T02:53:17;2.60;;;2.40;;
3261;SDS011;1643;47.746;9.000;2023-09-18T02:55:48;3.47;;;3.07;;
3261;SDS011;1643;47.746;9.000;2023-09-18T02:58:18;3.47;;;2.87;;
3261;SDS011;1643;47.746;9.000;2023-09-18T03:00:46;2.67;;;2.47;;
3261;SDS011;1643;47.746;9.000;2023-09-18T03:03:12;2.67;;;2.00;;
3261;SDS011;1643;47.746;9.000;2023-09-18T03:05:39;9.00;;;2.60;;
3261;SDS011;1643;47.746;9.000;2023-09-18T03:08:05;3.93;;;2.63;;
3261;SDS011;1643;47.746;9.000;2023-09-18T03:10:41;3.90;;;2.80;;
3261;SDS011;1643;47.746;9.000;2023-09-18T03:13:10;3.20;;;2.20;;
3261;SDS011;1643;47.746;9.000;2023-09-18T03:15:36;4.00;;;2.60;;
3261;SDS011;1643;47.746;9.000;2023-09-18T03:18:03;3.30;;;3.00;;
3261;SDS011;1643;47.746;9.000;2023-09-18T03:20:29;4.60;;;2.60;;
3261;SDS011;1643;47.746;9.000;2023-09-18T03:22:56;2.90;;;2.70;;
3261;SDS011;1643;47.746;9.000;2023-09-18T03:25:25;3.07;;;2.70;;
3261;SDS011;1643;47.746;9.000;2023-09-18T03:27:52;3.60;;;3.10;;
3261;SDS011;1643;47.746;9.000;2023-09-18T03:30:19;2.73;;;2.53;;
3261;SDS011;1643;47.746;9.000;2023-09-18T03:32:45;2.90;;;2.70;;
3261;SDS011;1643;47.746;9.000;2023-09-18T03:35:11;6.30;;;3.20;;
3261;SDS011;1643;47.746;9.000;2023-09-18T03:40:12;2.70;;;2.50;;
3261;SDS011;1643;47.746;9.000;2023-09-18T03:42:37;8.70;;;3.50;;
3261;SDS011;1643;47.746;9.000;2023-09-18T03:45:05;4.50;;;3.37;;
3261;SDS011;1643;47.746;9.000;2023-09-18T03:47:31;2.70;;;2.50;;
3261;SDS011;1643;47.746;9.000;2023-09-18T03:49:58;2.93;;;2.63;;
3261;SDS011;1643;47.746;9.000;2023-09-18T03:52:24;3.13;;;2.83;;
3261;SDS011;1643;47.746;9.000;2023-09-18T03:54:49;3.17;;;2.87;;
3261;SDS011;1643;47.746;9.000;2023-09-18T03:57:16;2.83;;;2.43;;
3261;SDS011;1643;47.746;9.000;2023-09-18T03:59:41;3.20;;;2.90;;
3261;SDS011;1643;47.746;9.000;2023-09-18T04:02:07;3.40;;;2.90;;
3261;SDS011;1643;47.746;9.000;2023-09-18T04:04:33;4.13;;;3.17;;
3261;SDS011;1643;47.746;9.000;2023-09-18T04:06:58;4.10;;;3.20;;
3261;SDS011;1643;47.746;9.000;2023-09-18T04:09:24;3.17;;;2.80;;
3261;SDS011;1643;47.746;9.000;2023-09-18T04:11:50;3.67;;;3.10;;
3261;SDS011;1643;47.746;9.000;2023-09-18T04:14:16;4.93;;;3.00;;
3261;SDS011;1643;47.746;9.000;2023-09-18T04:16:41;2.83;;;2.50;;
3261;SDS011;1643;47.746;9.000;2023-09-18T04:19:08;5.13;;;3.40;;
3261;SDS011;1643;47.746;9.000;2023-09-18T04:21:34;3.60;;;3.00;;
3261;SDS011;1643;47.746;9.000;2023-09-18T04:24:00;4.63;;;3.23;;
3261;SDS011;1643;47.746;9.000;2023-09-18T04:26:26;3.93;;;2.70;;
3261;SDS011;1643;47.746;9.000;2023-09-18T04:29:04;3.23;;;2.60;;
3261;SDS011;1643;47.746;9.000;2023-09-18T04:31:30;3.53;;;3.03;;
3261;SDS011;1643;47.746;9.000;2023-09-18T04:33:57;4.00;;;2.70;;
3261;SDS011;1643;47.746;9.000;2023-09-18T04:36:22;2.80;;;2.60;;
3261;SDS011;1643;47.746;9.000;2023-09-18T04:38:48;6.00;;;3.27;;
3261;SDS011;1643;47.746;9.000;2023-09-18T04:41:14;4.07;;;3.03;;
3261;SDS011;1643;47.746;9.000;2023-09-18T04:43:40;3.03;;;2.73;;
3261;SDS011;1643;47.746;9.000;2023-09-18T04:46:07;2.73;;;2.50;;
3261;SDS011;1643;47.746;9.000;2023-09-18T04:48:33;4.03;;;3.03;;
3261;SDS011;1643;47.746;9.000;2023-09-18T04:50:59;4.83;;;2.53;;
3261;SDS011;1643;47.746;9.000;2023-09-18T04:53:25;4.53;;;2.77;;
3261;SDS011;1643;47.746;9.000;2023-09-18T04:55:52;2.80;;;2.60;;
3261;SDS011;1643;47.746;9.000;2023-09-18T04:58:18;3.07;;;2.77;;
3261;SDS011;1643;47.746;9.000;2023-09-18T05:00:44;4.33;;;3.40;;
3261;SDS011;1643;47.746;9.000;2023-09-18T05:03:11;3.47;;;3.17;;
3261;SDS011;1643;47.746;9.000;2023-09-18T05:05:37;3.30;;;3.00;;
3261;SDS011;1643;47.746;9.000;2023-09-18T05:08:04;8.63;;;3.10;;
3261;SDS011;1643;47.746;9.000;2023-09-18T05:10:34;5.57;;;3.10;;
3261;SDS011;1643;47.746;9.000;2023-09-18T05:13:00;3.07;;;2.43;;
3261;SDS011;1643;47.746;9.000;2023-09-18T05:15:26;3.00;;;2.70;;
3261;SDS011;1643;47.746;9.000;2023-09-18T05:17:55;3.10;;;2.80;;
3261;SDS011;1643;47.746;9.000;2023-09-18T05:20:26;3.50;;;3.20;;
3261;SDS011;1643;47.746;9.000;2023-09-18T05:22:54;4.63;;;3.23;;
3261;SDS011;1643;47.746;9.000;2023-09-18T05:25:22;4.70;;;3.20;;
3261;SDS011;1643;47.746;9.000;2023-09-18T05:27:49;5.03;;;3.10;;
3261;SDS011;1643;47.746;9.000;2023-09-18T05:30:23;4.03;;;3.03;;
3261;SDS011;1643;47.746;9.000;2023-09-18T05:32:52;4.53;;;3.03;;
3261;SDS011;1643;47.746;9.000;2023-09-18T05:35:18;5.23;;;3.07;;
3261;SDS011;1643;47.746;9.000;2023-09-18T05:37:44;4.07;;;2.83;;
3261;SDS011;1643;47.746;9.000;2023-09-18T05:40:10;4.80;;;3.00;;
3261;SDS011;1643;47.746;9.000;2023-09-18T05:42:37;3.83;;;3.10;;
3261;SDS011;1643;47.746;9.000;2023-09-18T05:45:04;4.30;;;3.70;;
3261;SDS011;1643;47.746;9.000;2023-09-18T05:47:33;3.70;;;3.37;;
3261;SDS011;1643;47.746;9.000;2023-09-18T05:50:01;3.67;;;3.37;;
3261;SDS011;1643;47.746;9.000;2023-09-18T05:52:31;3.40;;;3.10;;
3261;SDS011;1643;47.746;9.000;2023-09-18T05:54:58;8.03;;;3.23;;
3261;SDS011;1643;47.746;9.000;2023-09-18T05:57:23;3.13;;;2.80;;
3261;SDS011;1643;47.746;9.000;2023-09-18T05:59:49;2.80;;;2.60;;
3261;SDS011;1643;47.746;9.000;2023-09-18T06:02:14;4.13;;;3.07;;
3261;SDS011;1643;47.746;9.000;2023-09-18T06:04:41;2.67;;;2.47;;
3261;SDS011;1643;47.746;9.000;2023-09-18T06:07:08;3.30;;;3.00;;
3261;SDS011;1643;47.746;9.000;2023-09-18T06:09:34;6.63;;;3.33;;
3261;SDS011;1643;47.746;9.000;2023-09-18T06:11:59;4.30;;;2.80;;
3261;SDS011;1643;47.746;9.000;2023-09-18T06:14:25;4.67;;;2.90;;
3261;SDS011;1643;47.746;9.000;2023-09-18T06:16:51;4.13;;;3.30;;
3261;SDS011;1643;47.746;9.000;2023-09-18T06:19:16;2.73;;;2.53;;
3261;SDS011;1643;47.746;9.000;2023-09-18T06:21:42;3.80;;;3.37;;
3261;SDS011;1643;47.746;9.000;2023-09-18T06:24:09;3.57;;;2.90;;
3261;SDS011;1643;47.746;9.000;2023-09-18T06:26:35;4.23;;;3.30;;
3261;SDS011;1643;47.746;9.000;2023-09-18T06:29:00;6.77;;;3.67;;
3261;SDS011;1643;47.746;9.000;2023-09-18T06:31:27;6.83;;;3.20;;
3261;SDS011;1643;47.746;9.000;2023-09-18T06:33:53;3.80;;;3.20;;
3261;SDS011;1643;47.746;9.000;2023-09-18T06:36:19;3.70;;;3.10;;
3261;SDS011;1643;47.746;9.000;2023-09-18T06:38:44;4.00;;;3.43;;
3261;SDS011;1643;47.746;9.000;2023-09-18T06:41:10;4.70;;;3.30;;
3261;SDS011;1643;47.746;9.000;2023-09-18T06:43:36;3.00;;;2.60;;
3261;SDS011;1643;47.746;9.000;2023-09-18T06:46:01;3.20;;;2.80;;
3261;SDS011;1643;47.746;9.000;2023-09-18T06:48:27;3.50;;;3.20;;
3261;SDS011;1643;47.746;9.000;2023-09-18T06:50:57;4.37;;;3.27;;
3261;SDS011;1643;47.746;9.000;2023-09-18T06:53:25;3.87;;;3.10;;
3261;SDS011;1643;47.746;9.000;2023-09-18T06:55:52;3.60;;;2.80;;
3261;SDS011;1643;47.746;9.000;2023-09-18T06:58:17;3.40;;;2.30;;
3261;SDS011;1643;47.746;9.000;2023-09-18T07:00:43;5.70;;;2.50;;
3261;SDS011;1643;47.746;9.000;2023-09-18T07:03:09;7.47;;;2.70;;
3261;SDS011;1643;47.746;9.000;2023-09-18T07:05:34;6.83;;;2.10;;
3261;SDS011;1643;47.746;9.000;2023-09-18T07:08:00;2.87;;;1.80;;
3261;SDS011;1643;47.746;9.000;2023-09-18T07:10:26;4.03;;;2.20;;
3261;SDS011;1643;47.746;9.000;2023-09-18T07:12:52;5.60;;;2.20;;
3261;SDS011;1643;47.746;9.000;2023-09-18T07:15:17;6.30;;;2.00;;
3261;SDS011;1643;47.746;9.000;2023-09-18T07:17:43;3.10;;;1.87;;
3261;SDS011;1643;47.746;9.000;2023-09-18T07:20:08;2.87;;;1.80;;
3261;SDS011;1643;47.746;9.000;2023-09-18T07:22:39;4.43;;;2.00;;
3261;SDS011;1643;47.746;9.000;2023-09-18T07:25:06;5.13;;;2.40;;
3261;SDS011;1643;47.746;9.000;2023-09-18T07:27:32;3.83;;;2.20;;
3261;SDS011;1643;47.746;9.000;2023-09-18T07:29:58;6.10;;;2.33;;
3261;SDS011;1643;47.746;9.000;2023-09-18T07:32:24;2.80;;;2.03;;
3261;SDS011;1643;47.746;9.000;2023-09-18T07:34:52;2.40;;;1.70;;
3261;SDS011;1643;47.746;9.000;2023-09-18T07:37:17;7.30;;;1.60;;
3261;SDS011;1643;47.746;9.000;2023-09-18T07:39:46;2.03;;;1.50;;
3261;SDS011;1643;47.746;9.000;2023-09-18T07:42:11;2.33;;;1.50;;
3261;SDS011;1643;47.746;9.000;2023-09-18T07:44:37;3.30;;;1.80;;
3261;SDS011;1643;47.746;9.000;2023-09-18T07:47:03;6.73;;;2.00;;
3261;SDS011;1643;47.746;9.000;2023-09-18T07:49:28;3.73;;;1.93;;
3261;SDS011;1643;47.746;9.000;2023-09-18T07:51:54;6.90;;;2.43;;
3261;SDS011;1643;47.746;9.000;2023-09-18T07:54:20;2.73;;;1.80;;
3261;SDS011;1643;47.746;9.000;2023-09-18T07:56:46;2.83;;;1.60;;
3261;SDS011;1643;47.746;9.000;2023-09-18T07:59:11;2.57;;;1.87;;
3261;SDS011;1643;47.746;9.000;2023-09-18T08:01:39;3.20;;;2.07;;
3261;SDS011;1643;47.746;9.000;2023-09-18T08:04:06;5.87;;;1.80;;
3261;SDS011;1643;47.746;9.000;2023-09-18T08:06:31;5.77;;;1.90;;
3261;SDS011;1643;47.746;9.000;2023-09-18T08:08:57;3.13;;;1.67;;
3261;SDS011;1643;47.746;9.000;2023-09-18T08:11:23;6.90;;;1.83;;
3261;SDS011;1643;47.746;9.000;2023-09-18T08:13:48;4.30;;;1.60;;
3261;SDS011;1643;47.746;9.000;2023-09-18T08:16:14;4.03;;;1.80;;
3261;SDS011;1643;47.746;9.000;2023-09-18T08:18:40;7.70;;;1.90;;
3261;SDS011;1643;47.746;9.000;2023-09-18T08:21:06;1.93;;;1.40;;
3261;SDS011;1643;47.746;9.000;2023-09-18T08:23:34;3.03;;;1.53;;
3261;SDS011;1643;47.746;9.000;2023-09-18T08:26:01;5.60;;;1.60;;
3261;SDS011;1643;47.746;9.000;2023-09-18T08:28:28;4.93;;;1.90;;
3261;SDS011;1643;47.746;9.000;2023-09-18T08:30:54;5.93;;;2.00;;
3261;SDS011;1643;47.746;9.000;2023-09-18T08:33:20;2.10;;;1.57;;
3261;SDS011;1643;47.746;9.000;2023-09-18T08:35:46;2.93;;;1.60;;
3261;SDS011;1643;47.746;9.000;2023-09-18T08:38:12;2.67;;;1.70;;
3261;SDS011;1643;47.746;9.000;2023-09-18T08:40:40;4.97;;;1.97;;
3261;SDS011;1643;47.746;9.000;2023-09-18T08:43:07;4.70;;;1.60;;
3261;SDS011;1643;47.746;9.000;2023-09-18T08:45:42;2.43;;;1.80;;
3261;SDS011;1643;47.746;9.000;2023-09-18T08:48:15;8.40;;;2.07;;
3261;SDS011;1643;47.746;9.000;2023-09-18T08:50:41;2.10;;;1.43;;
3261;SDS011;1643;47.746;9.000;2023-09-18T08:53:07;2.97;;;1.60;;
3261;SDS011;1643;47.746;9.000;2023-09-18T08:55:33;6.50;;;2.37;;
3261;SDS011;1643;47.746;9.000;2023-09-18T08:57:59;6.33;;;1.90;;
3261;SDS011;1643;47.746;9.000;2023-09-18T09:00:25;3.90;;;1.70;;
3261;SDS011;1643;47.746;9.000;2023-09-18T09:02:52;4.80;;;2.00;;
3261;SDS011;1643;47.746;9.000;2023-09-18T09:05:19;4.93;;;1.80;;
3261;SDS011;1643;47.746;9.000;2023-09-18T09:07:45;5.17;;;1.63;;
3261;SDS011;1643;47.746;9.000;2023-09-18T09:10:11;1.23;;;1.13;;
3261;SDS011;1643;47.746;9.000;2023-09-18T09:12:47;2.30;;;1.33;;
3261;SDS011;1643;47.746;9.000;2023-09-18T09:15:14;4.70;;;1.40;;
3261;SDS011;1643;47.746;9.000;2023-09-18T09:17:40;3.50;;;1.47;;
3261;SDS011;1643;47.746;9.000;2023-09-18T09:20:08;4.77;;;1.80;;
3261;SDS011;1643;47.746;9.000;2023-09-18T09:22:36;4.53;;;1.40;;
3261;SDS011;1643;47.746;9.000;2023-09-18T09:25:03;3.07;;;1.60;;
3261;SDS011;1643;47.746;9.000;2023-09-18T09:27:41;2.17;;;1.30;;
3261;SDS011;1643;47.746;9.000;2023-09-18T09:30:07;3.17;;;1.60;;
3261;SDS011;1643;47.746;9.000;2023-09-18T09:32:34;2.80;;;1.50;;
3261;SDS011;1643;47.746;9.000;2023-09-18T09:35:00;1.73;;;1.20;;
3261;SDS011;1643;47.746;9.000;2023-09-18T09:37:30;4.10;;;1.77;;
3261;SDS011;1643;47.746;9.000;2023-09-18T09:39:56;1.97;;;1.40;;
3261;SDS011;1643;47.746;9.000;2023-09-18T09:42:24;4.03;;;1.60;;
3261;SDS011;1643;47.746;9.000;2023-09-18T09:45:03;3.00;;;1.63;;
3261;SDS011;1643;47.746;9.000;2023-09-18T09:47:34;2.47;;;1.33;;
3261;SDS011;1643;47.746;9.000;2023-09-18T09:50:05;2.73;;;1.33;;
3261;SDS011;1643;47.746;9.000;2023-09-18T09:52:42;1.70;;;1.40;;
3261;SDS011;1643;47.746;9.000;2023-09-18T09:57:50;1.43;;;1.10;;
3261;SDS011;1643;47.746;9.000;2023-09-18T10:00:17;2.90;;;1.50;;
3261;SDS011;1643;47.746;9.000;2023-09-18T10:02:53;1.47;;;1.30;;
3261;SDS011;1643;47.746;9.000;2023-09-18T10:05:36;2.97;;;1.77;;
3261;SDS011;1643;47.746;9.000;2023-09-18T10:08:11;2.90;;;1.70;;
3261;SDS011;1643;47.746;9.000;2023-09-18T10:10:45;3.50;;;1.60;;
3261;SDS011;1643;47.746;9.000;2023-09-18T10:13:15;1.83;;;1.33;;
3261;SDS011;1643;47.746;9.000;2023-09-18T10:15:58;6.30;;;1.87;;
3261;SDS011;1643;47.746;9.000;2023-09-18T10:21:30;2.00;;;1.40;;
3261;SDS011;1643;47.746;9.000;2023-09-18T10:24:13;3.73;;;2.10;;
3261;SDS011;1643;47.746;9.000;2023-09-18T10:29:21;3.77;;;1.83;;
3261;SDS011;1643;47.746;9.000;2023-09-18T10:31:49;5.17;;;1.83;;
3261;SDS011;1643;47.746;9.000;2023-09-18T10:34:17;6.00;;;1.53;;
3261;SDS011;1643;47.746;9.000;2023-09-18T10:36:45;5.90;;;1.60;;
3261;SDS011;1643;47.746;9.000;2023-09-18T10:39:12;2.97;;;2.03;;
3261;SDS011;1643;47.746;9.000;2023-09-18T10:41:38;4.40;;;2.30;;
3261;SDS011;1643;47.746;9.000;2023-09-18T10:44:06;3.37;;;2.00;;
3261;SDS011;1643;47.746;9.000;2023-09-18T10:46:33;2.80;;;1.80;;
3261;SDS011;1643;47.746;9.000;2023-09-18T10:49:00;3.80;;;1.70;;
3261;SDS011;1643;47.746;9.000;2023-09-18T10:51:28;3.77;;;1.87;;
3261;SDS011;1643;47.746;9.000;2023-09-18T10:53:56;2.83;;;1.93;;
3261;SDS011;1643;47.746;9.000;2023-09-18T10:56:22;2.23;;;1.53;;
3261;SDS011;1643;47.746;9.000;2023-09-18T10:58:55;2.43;;;1.83;;
3261;SDS011;1643;47.746;9.000;2023-09-18T11:01:23;1.50;;;1.40;;
3261;SDS011;1643;47.746;9.000;2023-09-18T11:03:52;2.60;;;1.57;;
3261;SDS011;1643;47.746;9.000;2023-09-18T11:06:18;1.40;;;1.10;;
3261;SDS011;1643;47.746;9.000;2023-09-18T11:08:46;2.00;;;1.80;;
3261;SDS011;1643;47.746;9.000;2023-09-18T11:11:17;3.77;;;1.53;;
3261;SDS011;1643;47.746;9.000;2023-09-18T11:13:54;2.10;;;1.40;;
3261;SDS011;1643;47.746;9.000;2023-09-18T11:16:42;2.07;;;1.27;;
3261;SDS011;1643;47.746;9.000;2023-09-18T11:19:08;2.90;;;1.37;;
3261;SDS011;1643;47.746;9.000;2023-09-18T11:21:34;3.90;;;1.50;;
3261;SDS011;1643;47.746;9.000;2023-09-18T11:24:01;2.40;;;1.70;;
3261;SDS011;1643;47.746;9.000;2023-09-18T11:26:35;2.00;;;1.30;;
3261;SDS011;1643;47.746;9.000;2023-09-18T11:29:05;3.40;;;1.40;;
3261;SDS011;1643;47.746;9.000;2023-09-18T11:31:53;2.90;;;1.63;;
3261;SDS011;1643;47.746;9.000;2023-09-18T11:37:22;1.77;;;1.30;;
3261;SDS011;1643;47.746;9.000;2023-09-18T11:39:50;2.27;;;1.90;;
3261;SDS011;1643;47.746;9.000;2023-09-18T11:42:19;2.23;;;1.43;;
3261;SDS011;1643;47.746;9.000;2023-09-18T11:44:53;2.47;;;1.77;;
3261;SDS011;1643;47.746;9.000;2023-09-18T11:47:24;4.40;;;1.77;;
3261;SDS011;1643;47.746;9.000;2023-09-18T11:49:52;2.03;;;1.20;;
3261;SDS011;1643;47.746;9.000;2023-09-18T11:52:23;2.10;;;1.43;;
3261;SDS011;1643;47.746;9.000;2023-09-18T11:54:49;5.80;;;1.97;;
3261;SDS011;1643;47.746;9.000;2023-09-18T11:57:16;1.40;;;1.30;;
3261;SDS011;1643;47.746;9.000;2023-09-18T11:59:43;1.90;;;1.40;;
3261;SDS011;1643;47.746;9.000;2023-09-18T12:02:11;1.97;;;1.57;;
3261;SDS011;1643;47.746;9.000;2023-09-18T12:05:10;1.33;;;1.23;;
3261;SDS011;1643;47.746;9.000;2023-09-18T12:07:40;1.40;;;1.30;;
3261;SDS011;1643;47.746;9.000;2023-09-18T12:10:11;2.07;;;1.30;;
3261;SDS011;1643;47.746;9.000;2023-09-18T12:12:42;2.87;;;1.53;;
3261;SDS011;1643;47.746;9.000;2023-09-18T12:15:11;2.23;;;1.50;;
3261;SDS011;1643;47.746;9.000;2023-09-18T12:17:37;3.90;;;1.77;;
3261;SDS011;1643;47.746;9.000;2023-09-18T12:20:03;3.27;;;1.30;;
3261;SDS011;1643;47.746;9.000;2023-09-18T12:22:30;2.23;;;1.30;;
3261;SDS011;1643;47.746;9.000;2023-09-18T12:25:10;1.40;;;1.30;;
3261;SDS011;1643;47.746;9.000;2023-09-18T12:27:37;1.73;;;1.63;;
3261;SDS011;1643;47.746;9.000;2023-09-18T12:30:03;1.53;;;1.43;;
3261;SDS011;1643;47.746;9.000;2023-09-18T12:32:30;1.50;;;1.33;;
3261;SDS011;1643;47.746;9.000;2023-09-18T12:34:57;2.57;;;1.50;;
3261;SDS011;1643;47.746;9.000;2023-09-18T12:37:23;3.17;;;1.63;;
3261;SDS011;1643;47.746;9.000;2023-09-18T12:39:49;2.30;;;1.53;;
3261;SDS011;1643;47.746;9.000;2023-09-18T12:42:17;2.43;;;1.23;;
3261;SDS011;1643;47.746;9.000;2023-09-18T12:44:49;4.83;;;1.87;;
3261;SDS011;1643;47.746;9.000;2023-09-18T12:47:15;2.03;;;1.40;;
3261;SDS011;1643;47.746;9.000;2023-09-18T12:49:41;2.03;;;1.83;;
3261;SDS011;1643;47.746;9.000;2023-09-18T12:52:07;2.40;;;1.40;;
3261;SDS011;1643;47.746;9.000;2023-09-18T12:54:50;1.60;;;1.30;;
3261;SDS011;1643;47.746;9.000;2023-09-18T12:57:21;3.00;;;1.40;;
3261;SDS011;1643;47.746;9.000;2023-09-18T12:59:46;2.33;;;1.30;;
3261;SDS011;1643;47.746;9.000;2023-09-18T13:02:16;4.60;;;1.93;;
3261;SDS011;1643;47.746;9.000;2023-09-18T13:04:47;2.50;;;1.77;;
3261;SDS011;1643;47.746;9.000;2023-09-18T13:07:20;3.00;;;1.43;;
3261;SDS011;1643;47.746;9.000;2023-09-18T13:10:19;1.47;;;1.00;;
3261;SDS011;1643;47.746;9.000;2023-09-18T13:15:12;2.63;;;1.50;;
3261;SDS011;1643;47.746;9.000;2023-09-18T13:17:39;2.10;;;1.43;;
3261;SDS011;1643;47.746;9.000;2023-09-18T13:20:21;2.30;;;1.20;;
3261;SDS011;1643;47.746;9.000;2023-09-18T13:22:52;1.63;;;1.30;;
3261;SDS011;1643;47.746;9.000;2023-09-18T13:25:23;1.63;;;1.20;;
3261;SDS011;1643;47.746;9.000;2023-09-18T13:27:50;1.30;;;1.10;;
3261;SDS011;1643;47.746;9.000;2023-09-18T13:30:17;1.53;;;1.40;;
3261;SDS011;1643;47.746;9.000;2023-09-18T13:32:45;1.40;;;1.27;;
3261;SDS011;1643;47.746;9.000;2023-09-18T13:35:13;3.37;;;1.60;;
3261;SDS011;1643;47.746;9.000;2023-09-18T13:37:40;1.83;;;1.50;;
3261;SDS011;1643;47.746;9.000;2023-09-18T13:40:05;1.60;;;1.10;;
3261;SDS011;1643;47.746;9.000;2023-09-18T13:42:32;2.70;;;1.30;;
3261;SDS011;1643;47.746;9.000;2023-09-18T13:44:58;3.40;;;1.33;;
3261;SDS011;1643;47.746;9.000;2023-09-18T13:47:25;1.30;;;1.20;;
3261;SDS011;1643;47.746;9.000;2023-09-18T13:49:54;2.07;;;1.50;;
3261;SDS011;1643;47.746;9.000;2023-09-18T13:52:31;2.23;;;1.40;;
3261;SDS011;1643;47.746;9.000;2023-09-18T13:54:58;2.67;;;1.50;;
3261;SDS011;1643;47.746;9.000;2023-09-18T13:57:24;2.23;;;1.37;;
3261;SDS011;1643;47.746;9.000;2023-09-18T13:59:50;1.30;;;1.13;;
3261;SDS011;1643;47.746;9.000;2023-09-18T14:02:16;1.67;;;1.40;;
3261;SDS011;1643;47.746;9.000;2023-09-18T14:04:43;1.67;;;1.00;;
3261;SDS011;1643;47.746;9.000;2023-09-18T14:07:09;1.53;;;1.03;;
3261;SDS011;1643;47.746;9.000;2023-09-18T14:09:36;4.70;;;1.47;;
3261;SDS011;1643;47.746;9.000;2023-09-18T14:12:02;1.37;;;1.27;;
3261;SDS011;1643;47.746;9.000;2023-09-18T14:14:28;2.30;;;1.37;;
3261;SDS011;1643;47.746;9.000;2023-09-18T14:16:54;1.43;;;1.27;;
3261;SDS011;1643;47.746;9.000;2023-09-18T14:19:20;1.77;;;1.30;;
3261;SDS011;1643;47.746;9.000;2023-09-18T14:21:46;1.30;;;1.10;;
3261;SDS011;1643;47.746;9.000;2023-09-18T14:24:14;1.43;;;1.20;;
3261;SDS011;1643;47.746;9.000;2023-09-18T14:26:40;1.37;;;1.27;;
3261;SDS011;1643;47.746;9.000;2023-09-18T14:29:09;1.20;;;1.10;;
3261;SDS011;1643;47.746;9.000;2023-09-18T14:31:36;1.87;;;1.37;;
3261;SDS011;1643;47.746;9.000;2023-09-18T14:34:02;1.57;;;1.33;;
3261;SDS011;1643;47.746;9.000;2023-09-18T14:36:29;1.10;;;1.00;;
3261;SDS011;1643;47.746;9.000;2023-09-18T14:38:55;2.03;;;1.17;;
3261;SDS011;1643;47.746;9.000;2023-09-18T14:41:23;1.10;;;1.00;;
3261;SDS011;1643;47.746;9.000;2023-09-18T14:43:50;2.20;;;1.10;;
3261;SDS011;1643;47.746;9.000;2023-09-18T14:46:16;2.23;;;1.57;;
3261;SDS011;1643;47.746;9.000;2023-09-18T14:48:42;1.57;;;1.20;;
3261;SDS011;1643;47.746;9.000;2023-09-18T14:51:07;1.40;;;1.23;;
3261;SDS011;1643;47.746;9.000;2023-09-18T14:53:33;2.63;;;1.37;;
3261;SDS011;1643;47.746;9.000;2023-09-18T14:55:59;1.20;;;1.10;;
3261;SDS011;1643;47.746;9.000;2023-09-18T14:58:25;1.13;;;1.00;;
3261;SDS011;1643;47.746;9.000;2023-09-18T15:00:51;1.23;;;1.13;;
3261;SDS011;1643;47.746;9.000;2023-09-18T15:03:18;1.40;;;1.20;;
3261;SDS011;1643;47.746;9.000;2023-09-18T15:05:44;2.60;;;1.27;;
3261;SDS011;1643;47.746;9.000;2023-09-18T15:08:10;2.40;;;1.47;;
3261;SDS011;1643;47.746;9.000;2023-09-18T15:10:36;1.30;;;1.20;;
3261;SDS011;1643;47.746;9.000;2023-09-18T15:13:02;1.30;;;1.20;;
3261;SDS011;1643;47.746;9.000;2023-09-18T15:15:28;1.30;;;1.20;;
3261;SDS011;1643;47.746;9.000;2023-09-18T15:17:53;1.73;;;1.17;;
3261;SDS011;1643;47.746;9.000;2023-09-18T15:20:19;1.30;;;1.20;;
3261;SDS011;1643;47.746;9.000;2023-09-18T15:22:49;1.23;;;1.00;;
3261;SDS011;1643;47.746;9.000;2023-09-18T15:25:15;0.97;;;0.90;;
3261;SDS011;1643;47.746;9.000;2023-09-18T15:27:41;1.27;;;1.17;;
3261;SDS011;1643;47.746;9.000;2023-09-18T15:30:07;2.07;;;1.33;;
3261;SDS011;1643;47.746;9.000;2023-09-18T15:32:45;2.70;;;1.27;;
3261;SDS011;1643;47.746;9.000;2023-09-18T15:35:13;2.10;;;1.57;;